createdAt,value
2022-08-20T00:01:19.954Z,98525.48
2022-08-20T00:04:25.648Z,98523.91
2022-08-20T00:07:30.797Z,98529.11
2022-08-20T00:10:38.421Z,98531.37
2022-08-20T00:13:47.178Z,98523.58
2022-08-20T00:16:52.970Z,98526.39
2022-08-20T00:19:57.120Z,98533.08
2022-08-20T00:23:06.246Z,98539.92
2022-08-20T00:26:16.931Z,98542.63
2022-08-20T00:29:23.604Z,98534.29
2022-08-20T00:32:30.040Z,98529.35
2022-08-20T00:35:38.988Z,98526.39
2022-08-20T00:38:46.988Z,98522.05
2022-08-20T00:41:53.335Z,98525.58
2022-08-20T00:44:59.568Z,98522.02
2022-08-20T00:48:06.640Z,98524.14
2022-08-20T00:51:30.141Z,98524.23
2022-08-20T00:54:40.534Z,98523.14
2022-08-20T00:58:01.711Z,98521.48
2022-08-20T01:01:09.575Z,98527.48
2022-08-20T01:04:16.027Z,98531.40
2022-08-20T01:07:30.431Z,98523.11
2022-08-20T01:10:39.491Z,98520.55
2022-08-20T01:13:48.154Z,98511.58
2022-08-20T01:17:01.656Z,98511.09
2022-08-20T01:20:12.437Z,98510.62
2022-08-20T01:23:30.480Z,98522.18
2022-08-20T01:26:39.845Z,98536.88
2022-08-20T01:29:47.101Z,98545.36
2022-08-20T01:32:53.444Z,98535.50
2022-08-20T01:36:00.734Z,98538.88
2022-08-20T01:39:10.179Z,98547.04
2022-08-20T01:42:25.445Z,98553.95
2022-08-20T01:45:32.035Z,98547.73
2022-08-20T01:48:40.060Z,98550.44
2022-08-20T01:51:46.828Z,98554.08
2022-08-20T01:54:55.827Z,98541.48
2022-08-20T01:58:03.385Z,98531.36
2022-08-20T02:01:19.856Z,98531.92
2022-08-20T02:04:27.319Z,98538.48
2022-08-20T02:07:34.076Z,98544.81
2022-08-20T02:10:40.626Z,98549.11
2022-08-20T02:13:49.894Z,98547.86
2022-08-20T02:16:58.738Z,98545.05
2022-08-20T02:20:09.320Z,98533.65
2022-08-20T02:23:16.868Z,98524.17
2022-08-20T02:26:23.401Z,98523.31
2022-08-20T02:29:29.949Z,98521.85
2022-08-20T02:32:36.292Z,98528.84
2022-08-20T02:35:44.266Z,98529.95
2022-08-20T02:38:50.641Z,98538.01
2022-08-20T02:41:57.285Z,98543.04
2022-08-20T02:45:06.331Z,98537.89
2022-08-20T02:48:21.091Z,98536.90
2022-08-20T02:51:30.181Z,98532.97
2022-08-20T02:54:37.177Z,98531.59
2022-08-20T02:57:43.692Z,98531.29
2022-08-20T03:00:50.494Z,98528.67
2022-08-20T03:03:59.230Z,98529.01
2022-08-20T03:07:07.681Z,98526.40
2022-08-20T03:10:14.885Z,98524.65
2022-08-20T03:13:22.761Z,98521.06
2022-08-20T03:16:29.040Z,98512.05
2022-08-20T03:19:35.376Z,98509.49
2022-08-20T03:22:41.644Z,98515.58
2022-08-20T03:25:48.542Z,98508.10
2022-08-20T03:28:54.902Z,98496.33
2022-08-20T03:32:03.911Z,98483.98
2022-08-20T03:35:16.161Z,98479.83
2022-08-20T03:38:32.442Z,98480.21
2022-08-20T03:41:39.845Z,98484.00
2022-08-20T03:44:46.130Z,98486.08
2022-08-20T03:47:55.810Z,98496.45
2022-08-20T03:51:02.700Z,98495.58
2022-08-20T03:54:09.139Z,98496.83
2022-08-20T03:57:17.955Z,98491.70
2022-08-20T04:00:27.141Z,98490.31
2022-08-20T04:03:33.578Z,98490.16
2022-08-20T04:06:40.434Z,98490.73
2022-08-20T04:09:47.561Z,98488.67
2022-08-20T04:12:53.828Z,98492.23
2022-08-20T04:16:02.305Z,98490.23
2022-08-20T04:19:09.542Z,98482.77
2022-08-20T04:22:16.506Z,98484.38
2022-08-20T04:25:24.002Z,98485.60
2022-08-20T04:28:30.485Z,98489.46
2022-08-20T04:31:36.743Z,98489.27
2022-08-20T04:34:43.749Z,98487.40
2022-08-20T04:38:01.484Z,98485.41
2022-08-20T04:41:08.512Z,98483.34
2022-08-20T04:44:29.008Z,98487.64
2022-08-20T04:47:35.876Z,98484.80
2022-08-20T04:50:45.219Z,98481.79
2022-08-20T04:53:53.751Z,98479.48
2022-08-20T04:57:02.137Z,98471.80
2022-08-20T05:00:14.377Z,98464.92
2022-08-20T05:03:21.393Z,98459.95
2022-08-20T05:06:30.040Z,98456.40
2022-08-20T05:09:43.935Z,98462.27
2022-08-20T05:12:56.510Z,98469.52
2022-08-20T05:16:05.221Z,98480.77
2022-08-20T05:19:13.492Z,98479.74
2022-08-20T05:22:19.821Z,98475.96
2022-08-20T05:25:29.450Z,98464.63
2022-08-20T05:28:42.183Z,98459.27
2022-08-20T05:32:03.330Z,98462.83
2022-08-20T05:35:12.453Z,98468.91
2022-08-20T05:38:21.084Z,98474.65
2022-08-20T05:41:30.455Z,98475.71
2022-08-20T05:44:37.747Z,98466.31
2022-08-20T05:47:44.796Z,98461.30
2022-08-20T05:50:55.341Z,98453.58
2022-08-20T05:54:01.924Z,98448.38
2022-08-20T05:57:08.507Z,98445.47
2022-08-20T06:00:17.393Z,98436.22
2022-08-20T06:03:42.196Z,98429.02
2022-08-20T06:06:48.661Z,98429.40
2022-08-20T06:09:54.966Z,98434.20
2022-08-20T06:13:01.445Z,98434.27
2022-08-20T06:16:08.240Z,98440.91
2022-08-20T06:19:14.812Z,98442.59
2022-08-20T06:22:31.689Z,98441.44
2022-08-20T06:25:38.877Z,98440.85
2022-08-20T06:28:45.168Z,98441.19
2022-08-20T06:31:51.938Z,98443.59
2022-08-20T06:34:58.248Z,98435.73
2022-08-20T06:38:08.244Z,98437.70
2022-08-20T06:41:14.953Z,98445.29
2022-08-20T06:44:21.641Z,98458.53
2022-08-20T06:47:27.992Z,98467.41
2022-08-20T06:50:47.029Z,98469.48
2022-08-20T06:53:54.388Z,98468.16
2022-08-20T06:57:00.583Z,98466.39
2022-08-20T07:00:08.891Z,98466.02
2022-08-20T07:03:15.833Z,98461.05
2022-08-20T07:06:22.192Z,98465.23
2022-08-20T07:09:29.088Z,98465.60
2022-08-20T07:12:36.605Z,98462.81
2022-08-20T07:15:43.228Z,98459.71
2022-08-20T07:18:49.574Z,98457.52
2022-08-20T07:21:56.018Z,98454.90
2022-08-20T07:25:02.588Z,98450.13
2022-08-20T07:28:13.991Z,98451.84
2022-08-20T07:31:37.907Z,98451.20
2022-08-20T07:34:44.802Z,98449.86
2022-08-20T07:37:54.708Z,98442.66
2022-08-20T07:41:04.643Z,98441.53
2022-08-20T07:44:10.918Z,98442.03
2022-08-20T07:47:21.418Z,98441.34
2022-08-20T07:50:29.380Z,98442.73
2022-08-20T07:53:39.150Z,98442.63
2022-08-20T07:56:45.420Z,98440.44
2022-08-20T07:59:51.809Z,98437.29
2022-08-20T08:02:58.178Z,98435.45
2022-08-20T08:06:05.317Z,98435.64
2022-08-20T08:09:14.396Z,98433.26
2022-08-20T08:12:21.458Z,98429.44
2022-08-20T08:15:32.646Z,98433.88
2022-08-20T08:18:43.227Z,98436.91
2022-08-20T08:21:49.652Z,98440.28
2022-08-20T08:24:58.316Z,98442.42
2022-08-20T08:28:06.171Z,98437.30
2022-08-20T08:31:13.460Z,98432.42
2022-08-20T08:34:20.180Z,98426.81
2022-08-20T08:37:30.476Z,98423.92
2022-08-20T08:40:37.313Z,98423.78
2022-08-20T08:43:46.928Z,98419.83
2022-08-20T08:46:57.994Z,98424.10
2022-08-20T08:50:07.036Z,98414.02
2022-08-20T08:53:20.468Z,98404.92
2022-08-20T08:56:29.779Z,98399.59
2022-08-20T08:59:53.876Z,98391.81
2022-08-20T09:03:09.092Z,98389.64
2022-08-20T09:06:21.957Z,98389.11
2022-08-20T09:09:31.525Z,98386.88
2022-08-20T09:12:37.866Z,98391.33
2022-08-20T09:15:44.227Z,98388.41
2022-08-20T09:18:50.643Z,98384.04
2022-08-20T09:21:57.560Z,98379.67
2022-08-20T09:25:04.536Z,98376.50
2022-08-20T09:28:10.880Z,98368.37
2022-08-20T09:31:19.369Z,98362.11
2022-08-20T09:34:31.781Z,98352.55
2022-08-20T09:37:38.335Z,98350.13
2022-08-20T09:40:44.679Z,98350.98
2022-08-20T09:43:51.034Z,98353.59
2022-08-20T09:46:57.345Z,98357.80
2022-08-20T09:50:03.651Z,98357.54
2022-08-20T09:53:11.129Z,98356.89
2022-08-20T09:56:18.272Z,98360.15
2022-08-20T09:59:24.666Z,98358.91
2022-08-20T10:02:31.028Z,98361.40
2022-08-20T10:05:37.303Z,98360.16
2022-08-20T10:08:43.680Z,98354.32
2022-08-20T10:11:50.153Z,98358.82
2022-08-20T10:14:57.002Z,98355.83
2022-08-20T10:18:07.955Z,98358.25
2022-08-20T10:21:14.812Z,98358.06
2022-08-20T10:24:21.871Z,98351.05
2022-08-20T10:27:28.332Z,98352.55
2022-08-20T10:30:34.841Z,98345.83
2022-08-20T10:33:41.944Z,98344.15
2022-08-20T10:36:48.381Z,98342.94
2022-08-20T10:39:55.765Z,98339.95
2022-08-20T10:43:03.518Z,98340.19
2022-08-20T10:46:10.106Z,98339.40
2022-08-20T10:49:16.516Z,98337.91
2022-08-20T10:52:23.861Z,98336.35
2022-08-20T10:55:30.181Z,98327.77
2022-08-20T10:58:39.317Z,98332.95
2022-08-20T11:01:46.374Z,98329.64
2022-08-20T11:04:53.423Z,98324.93
2022-08-20T11:08:00.060Z,98317.32
2022-08-20T11:11:07.200Z,98326.59
2022-08-20T11:14:13.671Z,98317.65
2022-08-20T11:17:24.328Z,98307.84
2022-08-20T11:20:32.251Z,98300.85
2022-08-20T11:23:38.604Z,98289.77
2022-08-20T11:26:45.293Z,98280.00
2022-08-20T11:29:51.759Z,98277.09
2022-08-20T11:32:58.609Z,98271.70
2022-08-20T11:36:05.346Z,98275.86
2022-08-20T11:39:11.825Z,98270.89
2022-08-20T11:42:18.466Z,98271.65
2022-08-20T11:45:24.933Z,98270.77
2022-08-20T11:48:31.258Z,98267.45
2022-08-20T11:51:49.064Z,98260.50
2022-08-20T11:54:56.377Z,98255.69
2022-08-20T11:58:03.695Z,98251.25
2022-08-20T12:01:10.488Z,98259.01
2022-08-20T12:04:16.915Z,98256.44
2022-08-20T12:07:25.452Z,98249.11
2022-08-20T12:10:32.422Z,98245.52
2022-08-20T12:13:48.707Z,98248.11
2022-08-20T12:16:55.462Z,98270.13
2022-08-20T12:20:04.905Z,98294.05
2022-08-20T12:23:11.252Z,98311.08
2022-08-20T12:26:18.110Z,98313.98
2022-08-20T12:29:26.281Z,98304.84
2022-08-20T12:32:33.657Z,98296.89
2022-08-20T12:35:39.965Z,98291.61
2022-08-20T12:38:46.254Z,98296.75
2022-08-20T12:41:52.657Z,98301.58
2022-08-20T12:44:59.503Z,98311.34
2022-08-20T12:48:08.160Z,98321.77
2022-08-20T12:51:14.365Z,98323.85
2022-08-20T12:54:20.701Z,98324.20
2022-08-20T12:57:29.688Z,98331.34
2022-08-20T13:00:38.736Z,98344.85
2022-08-20T13:03:49.605Z,98353.55
2022-08-20T13:07:01.615Z,98358.48
2022-08-20T13:10:10.276Z,98361.70
2022-08-20T13:13:20.905Z,98364.85
2022-08-20T13:16:27.589Z,98370.30
2022-08-20T13:19:35.658Z,98387.19
2022-08-20T13:22:42.007Z,98396.04
2022-08-20T13:25:48.326Z,98413.11
2022-08-20T13:28:54.622Z,98432.95
2022-08-20T13:32:00.916Z,98442.08
2022-08-20T13:35:08.308Z,98442.44
2022-08-20T13:38:15.737Z,98460.01
2022-08-20T13:41:21.973Z,98468.36
2022-08-20T13:44:32.294Z,98467.52
2022-08-20T13:47:42.834Z,98454.60
2022-08-20T13:50:49.095Z,98448.78
2022-08-20T13:53:55.328Z,98456.72
2022-08-20T13:57:10.103Z,98461.76
2022-08-20T14:00:20.825Z,98455.16
2022-08-20T14:03:27.113Z,98457.64
2022-08-20T14:06:33.596Z,98464.20
2022-08-20T14:09:42.058Z,98457.91
2022-08-20T14:12:48.393Z,98453.98
2022-08-20T14:15:55.315Z,98451.39
2022-08-20T14:19:01.561Z,98454.52
2022-08-20T14:22:07.992Z,98449.08
2022-08-20T14:25:17.160Z,98437.52
2022-08-20T14:28:25.532Z,98434.83
2022-08-20T14:31:31.921Z,98430.95
2022-08-20T14:34:38.257Z,98430.41
2022-08-20T14:37:48.323Z,98421.66
2022-08-20T14:40:54.780Z,98424.80
2022-08-20T14:44:01.131Z,98423.63
2022-08-20T14:47:18.524Z,98419.02
2022-08-20T14:50:27.758Z,98421.17
2022-08-20T14:53:38.579Z,98418.14
2022-08-20T14:56:46.687Z,98412.14
2022-08-20T14:59:55.074Z,98410.45
2022-08-20T15:03:01.389Z,98412.08
2022-08-20T15:06:20.401Z,98422.40
2022-08-20T15:09:30.737Z,98420.23
2022-08-20T15:12:37.324Z,98425.71
2022-08-20T15:15:43.803Z,98433.90
2022-08-20T15:18:50.119Z,98437.92
2022-08-20T15:22:02.829Z,98436.67
2022-08-20T15:25:11.832Z,98436.75
2022-08-20T15:28:19.597Z,98440.20
2022-08-20T15:31:26.009Z,98446.23
2022-08-20T15:34:32.417Z,98448.75
2022-08-20T15:37:42.811Z,98450.82
2022-08-20T15:40:49.642Z,98447.07
2022-08-20T15:43:55.920Z,98446.23
2022-08-20T15:47:22.278Z,98443.17
2022-08-20T15:50:57.975Z,98441.86
2022-08-20T15:54:07.690Z,98431.00
2022-08-20T15:57:17.542Z,98428.92
2022-08-20T16:00:27.089Z,98424.44
2022-08-20T16:03:55.534Z,98419.55
2022-08-20T16:07:08.237Z,98409.10
2022-08-20T16:10:23.105Z,98403.12
2022-08-20T16:13:38.612Z,98403.51
2022-08-20T16:16:48.264Z,98404.15
2022-08-20T16:20:04.654Z,98405.58
2022-08-20T16:23:12.669Z,98405.67
2022-08-20T16:26:35.936Z,98411.27
2022-08-20T16:29:52.277Z,98414.55
2022-08-20T16:33:04.732Z,98420.94
2022-08-20T16:36:16.474Z,98423.94
2022-08-20T16:39:26.289Z,98424.08
2022-08-20T16:42:39.352Z,98427.95
2022-08-20T16:45:53.242Z,98443.45
2022-08-20T16:49:01.669Z,98451.29
2022-08-20T16:52:08.368Z,98450.86
2022-08-20T16:55:15.661Z,98453.42
2022-08-20T16:58:22.225Z,98457.44
2022-08-20T17:01:29.435Z,98462.34
2022-08-20T17:04:45.313Z,98459.36
2022-08-20T17:08:07.687Z,98452.00
2022-08-20T17:11:17.275Z,98449.88
2022-08-20T17:14:23.567Z,98451.65
2022-08-20T17:17:32.747Z,98451.61
2022-08-20T17:20:46.729Z,98448.45
2022-08-20T17:23:56.772Z,98446.64
2022-08-20T17:27:10.363Z,98444.48
2022-08-20T17:30:24.334Z,98442.66
2022-08-20T17:33:34.172Z,98439.62
2022-08-20T17:36:50.970Z,98442.04
2022-08-20T17:40:09.015Z,98443.94
2022-08-20T17:43:28.311Z,98445.84
2022-08-20T17:46:37.685Z,98445.17
2022-08-20T17:50:01.838Z,98442.31
2022-08-20T17:53:23.013Z,98439.78
2022-08-20T17:56:34.588Z,98437.48
2022-08-20T18:00:01.071Z,98435.36
2022-08-20T18:03:20.080Z,98430.53
2022-08-20T18:06:34.591Z,98431.27
2022-08-20T18:09:49.399Z,98435.75
2022-08-20T18:13:03.037Z,98434.31
2022-08-20T18:16:17.076Z,98440.77
2022-08-20T18:19:41.488Z,98428.39
2022-08-20T18:22:54.862Z,98424.27
2022-08-20T18:26:09.595Z,98437.23
2022-08-20T18:29:19.965Z,98443.13
2022-08-20T18:32:32.929Z,98450.72
2022-08-20T18:35:44.888Z,98444.94
2022-08-20T18:39:05.751Z,98436.50
2022-08-20T18:42:25.932Z,98425.89
2022-08-20T18:45:34.851Z,98428.16
2022-08-20T18:48:51.377Z,98427.73
2022-08-20T18:51:58.520Z,98421.05
2022-08-20T18:55:09.104Z,98419.48
2022-08-20T18:58:29.840Z,98409.44
2022-08-20T19:01:39.693Z,98410.30
2022-08-20T19:04:50.024Z,98408.89
2022-08-20T19:08:02.872Z,98411.67
2022-08-20T19:11:29.441Z,98414.45
2022-08-20T19:14:58.744Z,98418.38
2022-08-20T19:18:11.487Z,98419.56
2022-08-20T19:21:20.883Z,98416.88
2022-08-20T19:24:30.432Z,98417.63
2022-08-20T19:27:37.803Z,98420.42
2022-08-20T19:30:45.055Z,98414.70
2022-08-20T19:34:02.264Z,98405.58
2022-08-20T19:37:34.755Z,98411.48
2022-08-20T19:40:45.926Z,98413.65
2022-08-20T19:43:53.851Z,98413.40
2022-08-20T19:47:00.950Z,98412.31
2022-08-20T19:50:20.848Z,98414.37
2022-08-20T19:53:31.004Z,98419.10
2022-08-20T19:56:42.794Z,98426.29
2022-08-20T19:59:58.307Z,98426.05
2022-08-20T20:03:11.741Z,98423.46
2022-08-20T20:06:22.040Z,98422.26
2022-08-20T20:09:31.015Z,98423.09
2022-08-20T20:12:37.995Z,98425.27
2022-08-20T20:15:45.067Z,98423.06
2022-08-20T20:19:15.624Z,98428.09
2022-08-20T20:22:21.570Z,98432.77
2022-08-20T20:25:42.566Z,98428.02
2022-08-20T20:28:52.135Z,98432.05
2022-08-20T20:32:00.415Z,98435.23
2022-08-20T20:35:09.112Z,98433.23
2022-08-20T20:38:26.919Z,98433.63
2022-08-20T20:41:33.554Z,98434.51
2022-08-20T20:44:41.410Z,98438.85
2022-08-20T20:47:53.424Z,98439.55
2022-08-20T20:51:00.770Z,98438.18
2022-08-20T20:54:08.947Z,98438.03
2022-08-20T20:57:32.040Z,98440.52
2022-08-20T21:00:45.151Z,98436.89
2022-08-20T21:03:51.888Z,98432.98
2022-08-20T21:07:00.533Z,98435.30
2022-08-20T21:10:07.667Z,98428.75
2022-08-20T21:13:16.391Z,98424.63
2022-08-20T21:16:22.807Z,98429.08
2022-08-20T21:19:29.472Z,98434.50
2022-08-20T21:22:38.524Z,98427.74
2022-08-20T21:25:44.965Z,98420.08
2022-08-20T21:28:51.236Z,98413.02
2022-08-20T21:31:58.715Z,98410.66
2022-08-20T21:35:05.254Z,98418.65
2022-08-20T21:38:11.883Z,98422.48
2022-08-20T21:41:29.617Z,98422.71
2022-08-20T21:44:38.549Z,98425.82
2022-08-20T21:47:54.328Z,98437.84
2022-08-20T21:51:00.701Z,98437.06
2022-08-20T21:54:07.035Z,98427.81
2022-08-20T21:57:21.769Z,98420.52
2022-08-20T22:00:58.784Z,98416.67
2022-08-20T22:04:06.956Z,98419.46
2022-08-20T22:07:14.245Z,98413.61
2022-08-20T22:10:20.800Z,98411.11
2022-08-20T22:13:31.767Z,98409.77
2022-08-20T22:16:38.630Z,98409.79
2022-08-20T22:19:51.856Z,98405.80
2022-08-20T22:22:58.461Z,98399.30
2022-08-20T22:26:05.013Z,98398.24
2022-08-20T22:29:12.974Z,98404.88
2022-08-20T22:32:19.603Z,98409.80
2022-08-20T22:35:42.938Z,98415.73
2022-08-20T22:38:54.776Z,98420.06
2022-08-20T22:42:01.529Z,98424.86
2022-08-20T22:45:11.742Z,98428.45
2022-08-20T22:48:23.061Z,98423.77
2022-08-20T22:51:32.645Z,98420.50
2022-08-20T22:54:44.564Z,98415.08
2022-08-20T22:57:51.603Z,98407.11
2022-08-20T23:00:59.744Z,98406.21
2022-08-20T23:04:11.418Z,98414.48
2022-08-20T23:07:19.268Z,98415.65
2022-08-20T23:10:26.259Z,98419.51
2022-08-20T23:13:32.552Z,98418.13
2022-08-20T23:16:40.226Z,98415.80
2022-08-20T23:19:49.112Z,98408.50
2022-08-20T23:22:56.246Z,98405.04
2022-08-20T23:26:03.816Z,98401.29
2022-08-20T23:29:10.394Z,98398.02
2022-08-20T23:32:17.427Z,98402.89
2022-08-20T23:35:24.149Z,98403.05
2022-08-20T23:38:38.655Z,98394.23
2022-08-20T23:41:45.431Z,98393.04
2022-08-20T23:44:54.586Z,98389.15
2022-08-20T23:48:01.049Z,98381.76
2022-08-20T23:51:08.290Z,98384.11
2022-08-20T23:54:14.574Z,98380.26
2022-08-20T23:57:21.214Z,98379.43
